sensor_id;sensor_type;location;lat;lon;timestamp;temperature;humidity
66582;SHT31;53438;48.898;2.308;2023-09-19T03:00:08;16.73;73.68
66582;SHT31;53438;48.898;2.308;2023-09-19T03:02:36;16.87;73.10
66582;SHT31;53438;48.898;2.308;2023-09-19T03:05:01;16.84;73.24
66582;SHT31;53438;48.898;2.308;2023-09-19T03:07:28;16.98;72.60
66582;SHT31;53438;48.898;2.308;2023-09-19T03:09:53;16.92;72.78
66582;SHT31;53438;48.898;2.308;2023-09-19T03:12:20;17.06;72.57
66582;SHT31;53438;48.898;2.308;2023-09-19T03:14:45;16.91;72.46
66582;SHT31;53438;48.898;2.308;2023-09-19T03:17:11;17.08;72.35
66582;SHT31;53438;48.898;2.308;2023-09-19T03:19:36;16.84;72.56
66582;SHT31;53438;48.898;2.308;2023-09-19T03:22:04;16.91;72.83
66582;SHT31;53438;48.898;2.308;2023-09-19T03:24:29;17.03;72.54
66582;SHT31;53438;48.898;2.308;2023-09-19T03:26:56;17.03;72.00
66582;SHT31;53438;48.898;2.308;2023-09-19T03:29:22;17.11;71.96
66582;SHT31;53438;48.898;2.308;2023-09-19T03:31:47;16.95;72.73
66582;SHT31;53438;48.898;2.308;2023-09-19T03:34:13;16.83;72.95
66582;SHT31;53438;48.898;2.308;2023-09-19T03:36:38;16.81;73.08
66582;SHT31;53438;48.898;2.308;2023-09-19T03:39:05;16.70;72.69
66582;SHT31;53438;48.898;2.308;2023-09-19T03:41:31;16.57;73.56
66582;SHT31;53438;48.898;2.308;2023-09-19T03:43:58;16.63;73.75
66582;SHT31;53438;48.898;2.308;2023-09-19T03:46:23;16.79;72.95
66582;SHT31;53438;48.898;2.308;2023-09-19T03:48:50;16.90;72.90
66582;SHT31;53438;48.898;2.308;2023-09-19T03:51:15;16.92;72.93
66582;SHT31;53438;48.898;2.308;2023-09-19T03:53:41;16.67;73.44
66582;SHT31;53438;48.898;2.308;2023-09-19T03:56:06;16.71;73.22
66582;SHT31;53438;48.898;2.308;2023-09-19T03:58:33;16.64;73.42
66582;SHT31;53438;48.898;2.308;2023-09-19T04:01:00;16.40;74.05
66582;SHT31;53438;48.898;2.308;2023-09-19T04:03:26;16.59;73.73
66582;SHT31;53438;48.898;2.308;2023-09-19T04:05:59;16.55;74.16
66582;SHT31;53438;48.898;2.308;2023-09-19T04:08:25;16.59;74.05
66582;SHT31;53438;48.898;2.308;2023-09-19T04:10:50;16.61;73.97
66582;SHT31;53438;48.898;2.308;2023-09-19T04:13:16;16.71;73.73
66582;SHT31;53438;48.898;2.308;2023-09-19T04:15:41;16.52;74.25
66582;SHT31;53438;48.898;2.308;2023-09-19T04:18:07;16.63;74.07
66582;SHT31;53438;48.898;2.308;2023-09-19T04:20:32;16.55;74.70
66582;SHT31;53438;48.898;2.308;2023-09-19T04:22:58;16.56;74.45
66582;SHT31;53438;48.898;2.308;2023-09-19T04:25:25;16.59;73.94
66582;SHT31;53438;48.898;2.308;2023-09-19T04:27:52;16.69;73.77
66582;SHT31;53438;48.898;2.308;2023-09-19T04:30:18;16.61;73.93
66582;SHT31;53438;48.898;2.308;2023-09-19T04:32:43;16.76;73.76
66582;SHT31;53438;48.898;2.308;2023-09-19T04:35:10;16.79;73.61
66582;SHT31;53438;48.898;2.308;2023-09-19T04:37:38;16.53;74.07
66582;SHT31;53438;48.898;2.308;2023-09-19T04:40:06;16.50;74.02
66582;SHT31;53438;48.898;2.308;2023-09-19T04:42:32;16.76;73.65
66582;SHT31;53438;48.898;2.308;2023-09-19T04:44:57;16.76;73.26
66582;SHT31;53438;48.898;2.308;2023-09-19T04:47:25;16.56;74.05
66582;SHT31;53438;48.898;2.308;2023-09-19T04:49:50;16.46;74.33
66582;SHT31;53438;48.898;2.308;2023-09-19T04:52:15;16.42;74.37
66582;SHT31;53438;48.898;2.308;2023-09-19T04:54:41;16.45;74.70
66582;SHT31;53438;48.898;2.308;2023-09-19T04:57:06;16.53;73.94
66582;SHT31;53438;48.898;2.308;2023-09-19T04:59:32;16.64;73.73
66582;SHT31;53438;48.898;2.308;2023-09-19T05:01:58;16.67;73.55
66582;SHT31;53438;48.898;2.308;2023-09-19T05:04:23;16.83;73.06
66582;SHT31;53438;48.898;2.308;2023-09-19T05:06:48;16.63;73.61
66582;SHT31;53438;48.898;2.308;2023-09-19T05:09:14;16.53;74.27
66582;SHT31;53438;48.898;2.308;2023-09-19T05:11:40;16.46;74.26
66582;SHT31;53438;48.898;2.308;2023-09-19T05:14:05;16.61;73.66
66582;SHT31;53438;48.898;2.308;2023-09-19T05:16:31;16.43;74.49
66582;SHT31;53438;48.898;2.308;2023-09-19T05:18:59;16.36;74.35
66582;SHT31;53438;48.898;2.308;2023-09-19T05:21:26;16.53;73.90
66582;SHT31;53438;48.898;2.308;2023-09-19T05:23:54;16.53;73.77
66582;SHT31;53438;48.898;2.308;2023-09-19T05:26:19;16.16;74.87
66582;SHT31;53438;48.898;2.308;2023-09-19T05:28:46;16.38;74.51
66582;SHT31;53438;48.898;2.308;2023-09-19T05:31:13;16.50;73.93
66582;SHT31;53438;48.898;2.308;2023-09-19T05:33:39;16.02;75.03
66582;SHT31;53438;48.898;2.308;2023-09-19T05:36:05;16.20;74.81
66582;SHT31;53438;48.898;2.308;2023-09-19T05:38:30;16.52;73.98
66582;SHT31;53438;48.898;2.308;2023-09-19T05:40:56;16.55;73.85
66582;SHT31;53438;48.898;2.308;2023-09-19T05:43:21;16.66;73.50
66582;SHT31;53438;48.898;2.308;2023-09-19T05:45:46;16.60;73.26
66582;SHT31;53438;48.898;2.308;2023-09-19T05:48:13;16.34;73.72
66582;SHT31;53438;48.898;2.308;2023-09-19T05:50:40;16.43;74.05
66582;SHT31;53438;48.898;2.308;2023-09-19T05:53:06;16.50;73.90
66582;SHT31;53438;48.898;2.308;2023-09-19T05:55:32;16.61;73.04
66582;SHT31;53438;48.898;2.308;2023-09-19T05:57:58;16.40;73.73
66582;SHT31;53438;48.898;2.308;2023-09-19T06:00:24;16.36;74.24
66582;SHT31;53438;48.898;2.308;2023-09-19T06:02:53;16.15;74.59
66582;SHT31;53438;48.898;2.308;2023-09-19T06:05:19;16.36;74.48
66582;SHT31;53438;48.898;2.308;2023-09-19T06:07:45;16.16;74.68
66582;SHT31;53438;48.898;2.308;2023-09-19T06:10:11;16.25;74.61
66582;SHT31;53438;48.898;2.308;2023-09-19T06:12:40;16.33;73.73
66582;SHT31;53438;48.898;2.308;2023-09-19T06:15:07;16.46;73.73
66582;SHT31;53438;48.898;2.308;2023-09-19T06:17:41;16.46;73.97
66582;SHT31;53438;48.898;2.308;2023-09-19T06:20:08;16.43;73.72
66582;SHT31;53438;48.898;2.308;2023-09-19T06:22:43;16.36;73.62
66582;SHT31;53438;48.898;2.308;2023-09-19T06:25:13;16.40;73.89
66582;SHT31;53438;48.898;2.308;2023-09-19T06:27:49;16.56;74.04
66582;SHT31;53438;48.898;2.308;2023-09-19T06:30:17;16.60;73.92
66582;SHT31;53438;48.898;2.308;2023-09-19T06:32:43;16.60;73.48
66582;SHT31;53438;48.898;2.308;2023-09-19T06:35:10;16.57;73.45
66582;SHT31;53438;48.898;2.308;2023-09-19T06:37:39;16.56;73.42
66582;SHT31;53438;48.898;2.308;2023-09-19T06:40:13;16.39;73.46
66582;SHT31;53438;48.898;2.308;2023-09-19T06:42:50;16.43;74.02
66582;SHT31;53438;48.898;2.308;2023-09-19T06:45:16;16.45;73.52
66582;SHT31;53438;48.898;2.308;2023-09-19T06:47:47;16.67;73.39
66582;SHT31;53438;48.898;2.308;2023-09-19T06:50:15;16.70;73.34
66582;SHT31;53438;48.898;2.308;2023-09-19T06:52:43;16.74;73.24
66582;SHT31;53438;48.898;2.308;2023-09-19T06:55:09;16.69;73.51
66582;SHT31;53438;48.898;2.308;2023-09-19T06:57:37;16.81;73.17
66582;SHT31;53438;48.898;2.308;2023-09-19T07:00:02;16.57;73.49
66582;SHT31;53438;48.898;2.308;2023-09-19T07:02:34;16.59;73.17
66582;SHT31;53438;48.898;2.308;2023-09-19T07:04:59;16.67;72.94
66582;SHT31;53438;48.898;2.308;2023-09-19T07:07:25;16.63;73.36
66582;SHT31;53438;48.898;2.308;2023-09-19T07:09:50;16.74;72.98
66582;SHT31;53438;48.898;2.308;2023-09-19T07:12:18;16.91;72.46
66582;SHT31;53438;48.898;2.308;2023-09-19T07:14:44;16.74;72.87
66582;SHT31;53438;48.898;2.308;2023-09-19T07:17:10;16.76;72.86
66582;SHT31;53438;48.898;2.308;2023-09-19T07:19:35;16.61;73.31
66582;SHT31;53438;48.898;2.308;2023-09-19T07:22:00;16.66;72.96
66582;SHT31;53438;48.898;2.308;2023-09-19T07:24:28;16.83;72.38
66582;SHT31;53438;48.898;2.308;2023-09-19T07:26:54;16.91;72.07
66582;SHT31;53438;48.898;2.308;2023-09-19T07:29:19;17.08;71.25
66582;SHT31;53438;48.898;2.308;2023-09-19T07:31:44;16.92;71.67
66582;SHT31;53438;48.898;2.308;2023-09-19T07:34:12;17.17;71.03
66582;SHT31;53438;48.898;2.308;2023-09-19T07:36:40;17.14;70.85
66582;SHT31;53438;48.898;2.308;2023-09-19T07:39:07;17.18;70.26
66582;SHT31;53438;48.898;2.308;2023-09-19T07:41:33;17.38;70.23
66582;SHT31;53438;48.898;2.308;2023-09-19T07:43:58;17.35;70.04
66582;SHT31;53438;48.898;2.308;2023-09-19T07:46:23;17.15;70.38
66582;SHT31;53438;48.898;2.308;2023-09-19T07:48:49;17.42;69.77
66582;SHT31;53438;48.898;2.308;2023-09-19T07:51:15;17.24;69.64
66582;SHT31;53438;48.898;2.308;2023-09-19T07:53:41;17.28;69.39
66582;SHT31;53438;48.898;2.308;2023-09-19T07:56:08;17.31;69.78
66582;SHT31;53438;48.898;2.308;2023-09-19T07:58:35;17.41;69.89
66582;SHT31;53438;48.898;2.308;2023-09-19T08:01:06;17.10;70.25
66582;SHT31;53438;48.898;2.308;2023-09-19T08:03:32;17.31;70.20
66582;SHT31;53438;48.898;2.308;2023-09-19T08:05:58;17.55;69.31
66582;SHT31;53438;48.898;2.308;2023-09-19T08:08:24;17.52;68.96
66582;SHT31;53438;48.898;2.308;2023-09-19T08:10:57;17.55;69.40
66582;SHT31;53438;48.898;2.308;2023-09-19T08:13:24;17.78;69.07
66582;SHT31;53438;48.898;2.308;2023-09-19T08:15:49;17.80;68.53
66582;SHT31;53438;48.898;2.308;2023-09-19T08:18:16;17.62;68.79
66582;SHT31;53438;48.898;2.308;2023-09-19T08:20:42;17.69;68.58
66582;SHT31;53438;48.898;2.308;2023-09-19T08:23:08;17.41;68.95
66582;SHT31;53438;48.898;2.308;2023-09-19T08:25:33;17.66;68.81
66582;SHT31;53438;48.898;2.308;2023-09-19T08:27:59;17.78;68.83
66582;SHT31;53438;48.898;2.308;2023-09-19T08:30:27;17.85;68.20
66582;SHT31;53438;48.898;2.308;2023-09-19T08:32:59;17.86;68.13
66582;SHT31;53438;48.898;2.308;2023-09-19T08:35:24;17.89;68.33
66582;SHT31;53438;48.898;2.308;2023-09-19T08:37:50;18.07;67.84
66582;SHT31;53438;48.898;2.308;2023-09-19T08:40:16;18.07;68.21
66582;SHT31;53438;48.898;2.308;2023-09-19T08:42:53;18.17;67.54
66582;SHT31;53438;48.898;2.308;2023-09-19T08:45:21;18.31;67.40
66582;SHT31;53438;48.898;2.308;2023-09-19T08:51:10;18.23;67.48
66582;SHT31;53438;48.898;2.308;2023-09-19T08:54:03;18.24;67.41
66582;SHT31;53438;48.898;2.308;2023-09-19T08:56:32;18.24;67.88
66582;SHT31;53438;48.898;2.308;2023-09-19T08:59:05;18.51;67.28
66582;SHT31;53438;48.898;2.308;2023-09-19T09:01:33;18.64;66.59
66582;SHT31;53438;48.898;2.308;2023-09-19T09:03:58;18.62;66.94
66582;SHT31;53438;48.898;2.308;2023-09-19T09:06:25;18.62;66.66
66582;SHT31;53438;48.898;2.308;2023-09-19T09:08:51;18.52;67.60
66582;SHT31;53438;48.898;2.308;2023-09-19T09:11:18;18.34;67.55
66582;SHT31;53438;48.898;2.308;2023-09-19T09:13:45;18.71;67.07
66582;SHT31;53438;48.898;2.308;2023-09-19T09:16:11;18.95;66.18
66582;SHT31;53438;48.898;2.308;2023-09-19T09:18:37;18.94;65.71
66582;SHT31;53438;48.898;2.308;2023-09-19T09:21:03;18.82;65.77
66582;SHT31;53438;48.898;2.308;2023-09-19T09:23:32;18.88;66.17
66582;SHT31;53438;48.898;2.308;2023-09-19T09:25:58;19.09;65.55
66582;SHT31;53438;48.898;2.308;2023-09-19T09:28:29;19.16;65.35
66582;SHT31;53438;48.898;2.308;2023-09-19T09:30:56;19.02;65.06
66582;SHT31;53438;48.898;2.308;2023-09-19T09:33:24;18.81;66.01
66582;SHT31;53438;48.898;2.308;2023-09-19T09:38:22;19.08;65.43
66582;SHT31;53438;48.898;2.308;2023-09-19T09:40:53;19.17;64.83
66582;SHT31;53438;48.898;2.308;2023-09-19T09:46:19;19.34;63.70
66582;SHT31;53438;48.898;2.308;2023-09-19T09:49:00;19.27;64.18
66582;SHT31;53438;48.898;2.308;2023-09-19T09:51:45;19.41;63.49
66582;SHT31;53438;48.898;2.308;2023-09-19T09:54:26;19.68;62.92
66582;SHT31;53438;48.898;2.308;2023-09-19T09:57:06;19.75;63.00
66582;SHT31;53438;48.898;2.308;2023-09-19T09:59:53;19.74;61.94
66582;SHT31;53438;48.898;2.308;2023-09-19T10:02:28;19.84;62.02
66582;SHT31;53438;48.898;2.308;2023-09-19T10:04:55;19.77;61.97
66582;SHT31;53438;48.898;2.308;2023-09-19T10:07:29;19.94;62.10
66582;SHT31;53438;48.898;2.308;2023-09-19T10:10:04;19.94;61.02
66582;SHT31;53438;48.898;2.308;2023-09-19T10:12:46;19.89;61.29
66582;SHT31;53438;48.898;2.308;2023-09-19T10:15:14;19.97;61.00
66582;SHT31;53438;48.898;2.308;2023-09-19T10:17:45;19.79;60.74
66582;SHT31;53438;48.898;2.308;2023-09-19T10:20:17;19.98;60.86
66582;SHT31;53438;48.898;2.308;2023-09-19T10:23:18;20.12;60.24
66582;SHT31;53438;48.898;2.308;2023-09-19T10:25:48;20.16;59.68
66582;SHT31;53438;48.898;2.308;2023-09-19T10:28:15;19.89;60.25
66582;SHT31;53438;48.898;2.308;2023-09-19T10:30:46;19.89;59.18
66582;SHT31;53438;48.898;2.308;2023-09-19T10:33:16;20.14;59.50
66582;SHT31;53438;48.898;2.308;2023-09-19T10:35:47;20.15;59.31
66582;SHT31;53438;48.898;2.308;2023-09-19T10:38:15;19.88;59.36
66582;SHT31;53438;48.898;2.308;2023-09-19T10:40:42;19.99;59.83
66582;SHT31;53438;48.898;2.308;2023-09-19T10:43:16;20.11;59.97
66582;SHT31;53438;48.898;2.308;2023-09-19T10:45:47;20.02;59.80
66582;SHT31;53438;48.898;2.308;2023-09-19T10:48:27;20.09;59.51
66582;SHT31;53438;48.898;2.308;2023-09-19T10:51:06;19.97;59.38
66582;SHT31;53438;48.898;2.308;2023-09-19T10:53:56;19.91;59.33
66582;SHT31;53438;48.898;2.308;2023-09-19T10:56:48;19.73;59.19
66582;SHT31;53438;48.898;2.308;2023-09-19T10:59:16;19.95;58.71
66582;SHT31;53438;48.898;2.308;2023-09-19T11:01:51;20.04;58.61
66582;SHT31;53438;48.898;2.308;2023-09-19T11:04:33;19.99;58.32
66582;SHT31;53438;48.898;2.308;2023-09-19T11:09:55;20.14;58.05
66582;SHT31;53438;48.898;2.308;2023-09-19T11:26:42;20.72;58.08
66582;SHT31;53438;48.898;2.308;2023-09-19T11:29:28;20.67;57.24
66582;SHT31;53438;48.898;2.308;2023-09-19T11:31:55;20.43;57.78
66582;SHT31;53438;48.898;2.308;2023-09-19T11:37:01;20.42;58.23
66582;SHT31;53438;48.898;2.308;2023-09-19T11:39:29;20.63;58.20
66582;SHT31;53438;48.898;2.308;2023-09-19T11:41:55;20.37;58.67
66582;SHT31;53438;48.898;2.308;2023-09-19T11:49:18;20.50;58.48
66582;SHT31;53438;48.898;2.308;2023-09-19T11:51:51;20.60;59.14
66582;SHT31;53438;48.898;2.308;2023-09-19T11:54:20;20.60;58.30
66582;SHT31;53438;48.898;2.308;2023-09-19T11:56:51;20.73;58.44
66582;SHT31;53438;48.898;2.308;2023-09-19T11:59:24;20.55;58.57
66582;SHT31;53438;48.898;2.308;2023-09-19T12:02:04;20.67;58.66
66582;SHT31;53438;48.898;2.308;2023-09-19T12:07:16;20.66;59.31
66582;SHT31;53438;48.898;2.308;2023-09-19T12:09:46;20.66;59.12
66582;SHT31;53438;48.898;2.308;2023-09-19T12:12:23;20.65;59.14
66582;SHT31;53438;48.898;2.308;2023-09-19T12:14:52;20.69;59.00
66582;SHT31;53438;48.898;2.308;2023-09-19T12:17:18;20.77;58.70
66582;SHT31;53438;48.898;2.308;2023-09-19T12:19:53;20.84;58.84
66582;SHT31;53438;48.898;2.308;2023-09-19T12:22:19;20.81;59.17
66582;SHT31;53438;48.898;2.308;2023-09-19T12:24:47;20.79;59.41
66582;SHT31;53438;48.898;2.308;2023-09-19T12:27:13;20.86;59.41
66582;SHT31;53438;48.898;2.308;2023-09-19T12:29:47;20.94;59.53
66582;SHT31;53438;48.898;2.308;2023-09-19T12:32:15;20.69;59.82
66582;SHT31;53438;48.898;2.308;2023-09-19T12:34:51;20.86;59.62
66582;SHT31;53438;48.898;2.308;2023-09-19T12:37:17;20.69;60.54
66582;SHT31;53438;48.898;2.308;2023-09-19T12:39:50;20.75;60.20
66582;SHT31;53438;48.898;2.308;2023-09-19T12:42:19;21.03;59.67
66582;SHT31;53438;48.898;2.308;2023-09-19T12:44:46;20.97;59.61
66582;SHT31;53438;48.898;2.308;2023-09-19T12:47:15;21.00;59.74
66582;SHT31;53438;48.898;2.308;2023-09-19T12:50:17;20.96;60.23
66582;SHT31;53438;48.898;2.308;2023-09-19T12:52:49;21.03;59.91
66582;SHT31;53438;48.898;2.308;2023-09-19T12:55:28;21.05;59.26
66582;SHT31;53438;48.898;2.308;2023-09-19T12:58:11;21.03;59.21
66582;SHT31;53438;48.898;2.308;2023-09-19T13:00:45;21.03;59.44
66582;SHT31;53438;48.898;2.308;2023-09-19T13:06:03;21.31;58.83
66582;SHT31;53438;48.898;2.308;2023-09-19T13:08:39;21.24;58.58
66582;SHT31;53438;48.898;2.308;2023-09-19T13:11:11;21.32;57.96
66582;SHT31;53438;48.898;2.308;2023-09-19T13:14:35;21.45;58.19
66582;SHT31;53438;48.898;2.308;2023-09-19T13:22:00;21.42;57.76
66582;SHT31;53438;48.898;2.308;2023-09-19T13:24:25;21.52;57.00
66582;SHT31;53438;48.898;2.308;2023-09-19T13:26:54;21.62;56.32
66582;SHT31;53438;48.898;2.308;2023-09-19T13:29:20;21.52;57.11
66582;SHT31;53438;48.898;2.308;2023-09-19T13:31:49;21.32;56.87
66582;SHT31;53438;48.898;2.308;2023-09-19T13:34:15;21.55;57.58
66582;SHT31;53438;48.898;2.308;2023-09-19T13:36:42;21.59;57.30
66582;SHT31;53438;48.898;2.308;2023-09-19T13:39:08;21.75;58.13
66582;SHT31;53438;48.898;2.308;2023-09-19T13:41:34;21.78;56.93
66582;SHT31;53438;48.898;2.308;2023-09-19T13:44:02;21.42;56.85
66582;SHT31;53438;48.898;2.308;2023-09-19T13:46:28;21.52;57.29
66582;SHT31;53438;48.898;2.308;2023-09-19T13:48:56;21.67;57.18
66582;SHT31;53438;48.898;2.308;2023-09-19T13:51:21;21.82;57.14
66582;SHT31;53438;48.898;2.308;2023-09-19T13:53:50;21.93;56.68
66582;SHT31;53438;48.898;2.308;2023-09-19T13:56:16;21.86;56.92
66582;SHT31;53438;48.898;2.308;2023-09-19T13:58:41;21.90;57.07
66582;SHT31;53438;48.898;2.308;2023-09-19T14:01:07;21.89;56.88
66582;SHT31;53438;48.898;2.308;2023-09-19T14:03:37;21.99;56.19
66582;SHT31;53438;48.898;2.308;2023-09-19T14:06:03;21.96;56.64
66582;SHT31;53438;48.898;2.308;2023-09-19T14:08:29;21.82;55.43
66582;SHT31;53438;48.898;2.308;2023-09-19T14:10:54;21.78;55.12
66582;SHT31;53438;48.898;2.308;2023-09-19T14:13:19;21.83;55.55
66582;SHT31;53438;48.898;2.308;2023-09-19T14:15:46;21.73;55.87
66582;SHT31;53438;48.898;2.308;2023-09-19T14:18:11;21.78;55.83
66582;SHT31;53438;48.898;2.308;2023-09-19T14:20:39;21.72;56.25
66582;SHT31;53438;48.898;2.308;2023-09-19T14:23:07;21.58;56.46
66582;SHT31;53438;48.898;2.308;2023-09-19T14:25:36;21.56;56.20
66582;SHT31;53438;48.898;2.308;2023-09-19T14:28:04;21.58;56.54
66582;SHT31;53438;48.898;2.308;2023-09-19T14:30:29;21.75;56.84
66582;SHT31;53438;48.898;2.308;2023-09-19T14:32:55;21.79;56.49
66582;SHT31;53438;48.898;2.308;2023-09-19T14:35:20;21.83;56.87
66582;SHT31;53438;48.898;2.308;2023-09-19T14:37:48;21.58;57.19
66582;SHT31;53438;48.898;2.308;2023-09-19T14:40:13;21.65;56.95
66582;SHT31;53438;48.898;2.308;2023-09-19T14:42:40;21.61;58.08
66582;SHT31;53438;48.898;2.308;2023-09-19T14:45:06;21.72;57.11
66582;SHT31;53438;48.898;2.308;2023-09-19T14:47:32;21.71;57.81
66582;SHT31;53438;48.898;2.308;2023-09-19T14:50:00;21.75;57.53
66582;SHT31;53438;48.898;2.308;2023-09-19T14:52:26;21.71;57.76
66582;SHT31;53438;48.898;2.308;2023-09-19T14:54:53;21.55;57.87
66582;SHT31;53438;48.898;2.308;2023-09-19T14:57:19;21.75;57.74
66582;SHT31;53438;48.898;2.308;2023-09-19T14:59:44;21.72;57.83
66582;SHT31;53438;48.898;2.308;2023-09-19T15:02:10;21.81;57.62
66582;SHT31;53438;48.898;2.308;2023-09-19T15:04:35;21.78;57.96
66582;SHT31;53438;48.898;2.308;2023-09-19T15:07:00;21.83;58.12
66582;SHT31;53438;48.898;2.308;2023-09-19T15:09:28;21.83;58.00
66582;SHT31;53438;48.898;2.308;2023-09-19T15:11:55;21.78;58.61
66582;SHT31;53438;48.898;2.308;2023-09-19T15:14:24;21.88;58.90
66582;SHT31;53438;48.898;2.308;2023-09-19T15:16:50;21.90;58.72
66582;SHT31;53438;48.898;2.308;2023-09-19T15:19:15;21.78;58.58
66582;SHT31;53438;48.898;2.308;2023-09-19T15:21:41;21.76;59.09
66582;SHT31;53438;48.898;2.308;2023-09-19T15:24:07;21.76;58.72
66582;SHT31;53438;48.898;2.308;2023-09-19T15:26:38;21.89;58.60
66582;SHT31;53438;48.898;2.308;2023-09-19T15:29:07;21.82;58.88
66582;SHT31;53438;48.898;2.308;2023-09-19T15:31:34;21.76;58.64
66582;SHT31;53438;48.898;2.308;2023-09-19T15:34:02;21.88;58.71
66582;SHT31;53438;48.898;2.308;2023-09-19T15:36:27;21.93;59.00
66582;SHT31;53438;48.898;2.308;2023-09-19T15:39:06;21.95;58.51
66582;SHT31;53438;48.898;2.308;2023-09-19T15:41:37;22.00;58.33
66582;SHT31;53438;48.898;2.308;2023-09-19T15:44:03;21.90;57.94
66582;SHT31;53438;48.898;2.308;2023-09-19T15:46:32;21.99;58.34
66582;SHT31;53438;48.898;2.308;2023-09-19T15:49:02;21.92;57.91
66582;SHT31;53438;48.898;2.308;2023-09-19T15:51:28;21.99;57.91
66582;SHT31;53438;48.898;2.308;2023-09-19T15:53:54;21.86;57.97
66582;SHT31;53438;48.898;2.308;2023-09-19T15:56:22;21.86;58.02
66582;SHT31;53438;48.898;2.308;2023-09-19T15:58:49;21.95;57.77
66582;SHT31;53438;48.898;2.308;2023-09-19T16:01:15;21.90;58.04
66582;SHT31;53438;48.898;2.308;2023-09-19T16:03:47;21.95;58.57
66582;SHT31;53438;48.898;2.308;2023-09-19T16:06:14;22.00;58.53
66582;SHT31;53438;48.898;2.308;2023-09-19T16:08:45;22.03;58.50
66582;SHT31;53438;48.898;2.308;2023-09-19T16:11:11;21.85;58.72
66582;SHT31;53438;48.898;2.308;2023-09-19T16:13:40;21.89;59.37
66582;SHT31;53438;48.898;2.308;2023-09-19T16:16:07;21.93;59.21
66582;SHT31;53438;48.898;2.308;2023-09-19T16:18:33;21.95;59.61
66582;SHT31;53438;48.898;2.308;2023-09-19T16:21:03;21.90;59.58
66582;SHT31;53438;48.898;2.308;2023-09-19T16:23:29;21.92;59.66
66582;SHT31;53438;48.898;2.308;2023-09-19T16:26:04;21.78;59.45
66582;SHT31;53438;48.898;2.308;2023-09-19T16:28:31;21.79;59.80
66582;SHT31;53438;48.898;2.308;2023-09-19T16:31:00;21.72;60.45
66582;SHT31;53438;48.898;2.308;2023-09-19T16:33:26;21.72;60.16
66582;SHT31;53438;48.898;2.308;2023-09-19T16:35:52;21.88;60.68
66582;SHT31;53438;48.898;2.308;2023-09-19T16:38:18;21.85;59.98
66582;SHT31;53438;48.898;2.308;2023-09-19T16:40:54;21.85;60.25
66582;SHT31;53438;48.898;2.308;2023-09-19T16:43:21;21.92;59.91
66582;SHT31;53438;48.898;2.308;2023-09-19T16:48:20;21.88;60.76
66582;SHT31;53438;48.898;2.308;2023-09-19T16:50:45;21.81;60.52
66582;SHT31;53438;48.898;2.308;2023-09-19T16:53:11;21.79;60.57
66582;SHT31;53438;48.898;2.308;2023-09-19T16:55:37;21.78;60.85
66582;SHT31;53438;48.898;2.308;2023-09-19T16:58:03;21.78;61.07
66582;SHT31;53438;48.898;2.308;2023-09-19T17:00:30;21.83;60.78
66582;SHT31;53438;48.898;2.308;2023-09-19T17:02:56;21.93;60.96
66582;SHT31;53438;48.898;2.308;2023-09-19T17:05:22;21.76;61.10
66582;SHT31;53438;48.898;2.308;2023-09-19T17:07:47;21.71;61.17
66582;SHT31;53438;48.898;2.308;2023-09-19T17:10:13;21.72;61.47
66582;SHT31;53438;48.898;2.308;2023-09-19T17:12:38;21.71;61.59
66582;SHT31;53438;48.898;2.308;2023-09-19T17:15:04;21.62;61.77
66582;SHT31;53438;48.898;2.308;2023-09-19T17:17:30;21.59;61.56
66582;SHT31;53438;48.898;2.308;2023-09-19T17:19:55;21.61;61.68
66582;SHT31;53438;48.898;2.308;2023-09-19T17:22:20;21.49;61.62
66582;SHT31;53438;48.898;2.308;2023-09-19T17:24:46;21.55;61.94
66582;SHT31;53438;48.898;2.308;2023-09-19T17:27:12;21.54;61.95
66582;SHT31;53438;48.898;2.308;2023-09-19T17:29:37;21.65;61.80
66582;SHT31;53438;48.898;2.308;2023-09-19T17:32:03;21.59;62.22
66582;SHT31;53438;48.898;2.308;2023-09-19T17:34:29;21.54;61.76
66582;SHT31;53438;48.898;2.308;2023-09-19T17:36:55;21.52;63.14
66582;SHT31;53438;48.898;2.308;2023-09-19T17:39:20;21.49;62.49
66582;SHT31;53438;48.898;2.308;2023-09-19T17:41:46;21.56;62.34
66582;SHT31;53438;48.898;2.308;2023-09-19T17:44:11;21.51;62.24
66582;SHT31;53438;48.898;2.308;2023-09-19T17:46:37;21.52;62.42
66582;SHT31;53438;48.898;2.308;2023-09-19T17:49:04;21.62;62.29
66582;SHT31;53438;48.898;2.308;2023-09-19T17:51:29;21.58;62.08
66582;SHT31;53438;48.898;2.308;2023-09-19T17:53:55;21.61;62.45
66582;SHT31;53438;48.898;2.308;2023-09-19T17:56:24;21.48;63.09
66582;SHT31;53438;48.898;2.308;2023-09-19T17:58:50;21.45;62.56
66582;SHT31;53438;48.898;2.308;2023-09-19T18:01:20;21.59;62.87
66582;SHT31;53438;48.898;2.308;2023-09-19T18:03:48;21.52;63.03
66582;SHT31;53438;48.898;2.308;2023-09-19T18:06:14;21.45;62.89
66582;SHT31;53438;48.898;2.308;2023-09-19T18:08:41;21.38;63.68
66582;SHT31;53438;48.898;2.308;2023-09-19T18:11:12;21.45;63.21
66582;SHT31;53438;48.898;2.308;2023-09-19T18:13:42;21.46;62.77
66582;SHT31;53438;48.898;2.308;2023-09-19T18:16:09;21.39;63.52
66582;SHT31;53438;48.898;2.308;2023-09-19T18:18:35;21.73;62.60
66582;SHT31;53438;48.898;2.308;2023-09-19T18:21:01;21.42;62.73
66582;SHT31;53438;48.898;2.308;2023-09-19T18:23:27;21.37;63.36
66582;SHT31;53438;48.898;2.308;2023-09-19T18:26:00;21.41;63.51
66582;SHT31;53438;48.898;2.308;2023-09-19T18:28:26;21.45;63.27
66582;SHT31;53438;48.898;2.308;2023-09-19T18:30:51;21.75;62.37
66582;SHT31;53438;48.898;2.308;2023-09-19T18:33:17;21.65;62.39
66582;SHT31;53438;48.898;2.308;2023-09-19T18:35:43;21.61;62.58
66582;SHT31;53438;48.898;2.308;2023-09-19T18:38:09;21.62;62.61
66582;SHT31;53438;48.898;2.308;2023-09-19T18:40:36;21.59;62.97
66582;SHT31;53438;48.898;2.308;2023-09-19T18:43:03;21.63;63.07
66582;SHT31;53438;48.898;2.308;2023-09-19T18:45:29;21.65;63.17
66582;SHT31;53438;48.898;2.308;2023-09-19T18:47:54;21.61;62.75
66582;SHT31;53438;48.898;2.308;2023-09-19T18:50:20;21.56;62.66
66582;SHT31;53438;48.898;2.308;2023-09-19T18:52:47;21.52;62.49
66582;SHT31;53438;48.898;2.308;2023-09-19T18:55:12;21.72;62.44
66582;SHT31;53438;48.898;2.308;2023-09-19T18:57:39;21.61;62.75
66582;SHT31;53438;48.898;2.308;2023-09-19T19:00:05;21.62;62.56
66582;SHT31;53438;48.898;2.308;2023-09-19T19:02:34;21.61;62.88
66582;SHT31;53438;48.898;2.308;2023-09-19T19:04:59;21.61;62.50
66582;SHT31;53438;48.898;2.308;2023-09-19T19:07:25;21.61;63.01
66582;SHT31;53438;48.898;2.308;2023-09-19T19:09:51;21.59;63.08
66582;SHT31;53438;48.898;2.308;2023-09-19T19:12:17;21.52;62.95
66582;SHT31;53438;48.898;2.308;2023-09-19T19:14:42;21.56;63.28
66582;SHT31;53438;48.898;2.308;2023-09-19T19:17:11;21.42;63.38
66582;SHT31;53438;48.898;2.308;2023-09-19T19:19:38;21.45;63.34
66582;SHT31;53438;48.898;2.308;2023-09-19T19:22:05;21.45;63.52